Terminal Aerodrome Forecast
Issued by NWS

Home | Current Version | Previous Version | Text Only | Print | Product List | Glossary Off
Versions: 1 2 3 4 5 6 7 8 9 10 11 12 13 14 15 16 17 18

000
FTUS43 KMPX 182321
TAFRWF
TAF
KRWF 182321Z 1900/1924 32004KT P6SM VCTS SCT030CB BKN080
      TEMPO 1900/1902 1SM -TSRA BKN040CB
     FM190300 VRB03KT P6SM SKC
     FM190700 VRB02KT 3SM BR SKC
     FM190900 00000KT 1/4SM FG VV002
     FM191300 22003KT 3SM BR FEW003
     FM191400 21005KT P6SM SKC=

USA.gov is the U.S. government's official web portal to all federal, state and local government web resources and services.